createdAt,value
2022-08-07T00:02:36.201Z,63.87
2022-08-07T00:04:44.367Z,63.74
2022-08-07T00:07:50.542Z,63.75
2022-08-07T00:10:27.171Z,63.42
2022-08-07T00:12:59.816Z,63.48
2022-08-07T00:15:25.737Z,63.53
2022-08-07T00:17:59.224Z,63.56
2022-08-07T00:20:29.847Z,63.57
2022-08-07T00:22:57.305Z,63.31
2022-08-07T00:25:23.545Z,63.45
2022-08-07T00:27:52.669Z,63.24
2022-08-07T00:30:26.366Z,63.09
2022-08-07T00:32:51.421Z,62.92
2022-08-07T00:35:14.313Z,63.01
2022-08-07T00:37:47.771Z,63.05
2022-08-07T00:40:14.081Z,63.28
2022-08-07T00:42:36.989Z,63.27
2022-08-07T00:45:02.304Z,63.25
2022-08-07T00:48:09.031Z,63.24
2022-08-07T00:50:19.652Z,63.48
2022-08-07T00:52:55.437Z,63.82
2022-08-07T00:55:25.572Z,63.87
2022-08-07T00:58:00.879Z,64.07
2022-08-07T01:00:23.912Z,64.07
2022-08-07T01:02:47.022Z,64.55
2022-08-07T01:05:19.236Z,64.71
2022-08-07T01:07:43.022Z,64.71
2022-08-07T01:10:11.196Z,64.69
2022-08-07T01:12:37.196Z,64.56
2022-08-07T01:15:03.944Z,64.57
2022-08-07T01:17:27.613Z,64.61
2022-08-07T01:19:56.106Z,64.93
2022-08-07T01:22:22.827Z,64.87
2022-08-07T01:24:52.931Z,64.64
2022-08-07T01:27:19.506Z,65.01
2022-08-07T01:29:43.788Z,64.86
2022-08-07T01:32:12.553Z,64.84
2022-08-07T01:34:38.685Z,64.78
2022-08-07T01:37:09.815Z,64.98
2022-08-07T01:39:39.595Z,64.87
2022-08-07T01:42:39.015Z,64.93
2022-08-07T01:44:52.611Z,65.06
2022-08-07T01:48:19.101Z,64.92
2022-08-07T01:49:59.342Z,64.88
2022-08-07T01:52:26.592Z,64.82
2022-08-07T01:54:54.314Z,64.76
2022-08-07T01:57:24.915Z,64.77
2022-08-07T01:59:56.061Z,64.39
2022-08-07T02:03:11.440Z,64.14
2022-08-07T02:05:15.871Z,64.14
2022-08-07T02:07:58.645Z,64.02
2022-08-07T02:10:31.505Z,64.01
2022-08-07T02:12:59.993Z,64.07
2022-08-07T02:15:31.546Z,64.22
2022-08-07T02:17:59.934Z,64.23
2022-08-07T02:20:24.599Z,64.21
2022-08-07T02:22:57.576Z,64.14
2022-08-07T02:26:10.388Z,64.29
2022-08-07T02:28:09.209Z,64.30
2022-08-07T02:30:36.706Z,64.45
2022-08-07T02:33:07.300Z,64.20
2022-08-07T02:36:29.723Z,64.26
2022-08-07T02:38:22.719Z,64.44
2022-08-07T02:40:55.966Z,64.35
2022-08-07T02:43:19.835Z,64.23
2022-08-07T02:45:58.127Z,64.16
2022-08-07T02:48:25.924Z,64.02
2022-08-07T02:50:55.275Z,64.50
2022-08-07T02:53:27.200Z,64.43
2022-08-07T02:56:03.389Z,64.26
2022-08-07T02:58:33.412Z,64.40
2022-08-07T03:00:58.916Z,64.10
2022-08-07T03:03:23.889Z,64.12
2022-08-07T03:05:53.890Z,64.43
2022-08-07T03:08:18.034Z,64.56
2022-08-07T03:10:50.308Z,64.12
2022-08-07T03:13:19.654Z,64.07
2022-08-07T03:15:47.707Z,64.29
2022-08-07T03:18:20.123Z,64.05
2022-08-07T03:20:44.871Z,64.12
2022-08-07T03:23:19.025Z,64.08
2022-08-07T03:25:44.659Z,64.09
2022-08-07T03:28:38.402Z,65.09
2022-08-07T03:31:18.649Z,67.91
2022-08-07T03:33:46.211Z,70.37
2022-08-07T03:36:16.464Z,72.57
2022-08-07T03:38:41.949Z,72.76
2022-08-07T03:41:09.016Z,73.15
2022-08-07T03:43:33.916Z,72.60
2022-08-07T03:45:59.700Z,73.00
2022-08-07T03:48:22.811Z,72.97
2022-08-07T03:50:56.054Z,72.40
2022-08-07T03:54:01.817Z,72.70
2022-08-07T03:56:16.285Z,73.00
2022-08-07T03:59:08.678Z,72.36
2022-08-07T04:01:23.995Z,71.69
2022-08-07T04:03:53.330Z,71.80
2022-08-07T04:06:38.044Z,71.19
2022-08-07T04:09:15.199Z,70.81
2022-08-07T04:12:21.468Z,70.14
2022-08-07T04:14:38.531Z,69.75
2022-08-07T04:17:20.418Z,69.34
2022-08-07T04:19:54.907Z,69.68
2022-08-07T04:22:29.479Z,69.58
2022-08-07T04:24:55.920Z,70.57
2022-08-07T04:27:25.862Z,78.23
2022-08-07T04:30:02.381Z,76.64
2022-08-07T04:32:58.073Z,78.39
2022-08-07T04:35:24.025Z,78.19
2022-08-07T04:38:03.552Z,78.89
2022-08-07T04:40:31.315Z,79.38
2022-08-07T04:42:55.149Z,79.76
2022-08-07T04:45:52.155Z,80.78
2022-08-07T04:48:23.909Z,78.29
2022-08-07T04:50:58.459Z,80.23
2022-08-07T04:54:01.898Z,81.48
2022-08-07T04:58:09.386Z,82.47
2022-08-07T05:00:11.430Z,82.93
2022-08-07T05:02:40.066Z,82.16
2022-08-07T05:05:52.124Z,82.25
2022-08-07T05:08:08.430Z,82.88
2022-08-07T05:10:39.299Z,82.71
2022-08-07T05:14:53.107Z,83.20
2022-08-07T05:16:04.771Z,82.14
2022-08-07T05:18:30.983Z,82.56
2022-08-07T05:21:02.087Z,82.50
2022-08-07T05:23:36.356Z,82.67
2022-08-07T05:26:15.432Z,82.61
2022-08-07T05:28:48.431Z,82.21
2022-08-07T05:31:17.825Z,82.02
2022-08-07T05:33:51.399Z,81.72
2022-08-07T05:36:30.609Z,81.48
2022-08-07T05:39:16.000Z,81.98
2022-08-07T05:42:01.803Z,80.94
2022-08-07T05:44:29.697Z,81.45
2022-08-07T05:46:55.443Z,81.45
2022-08-07T05:49:22.127Z,80.32
2022-08-07T05:51:47.270Z,80.37
2022-08-07T05:54:31.211Z,80.29
2022-08-07T05:57:01.183Z,77.52
2022-08-07T05:59:30.063Z,77.44
2022-08-07T06:02:20.109Z,79.01
2022-08-07T06:04:57.114Z,79.03
2022-08-07T06:07:22.909Z,78.63
2022-08-07T06:10:04.053Z,77.79
2022-08-07T06:12:33.007Z,76.56
2022-08-07T06:15:05.847Z,77.90
2022-08-07T06:17:37.766Z,75.81
2022-08-07T06:20:04.131Z,75.40
2022-08-07T06:22:34.333Z,76.33
2022-08-07T06:25:13.855Z,76.41
2022-08-07T06:27:59.579Z,75.70
2022-08-07T06:30:31.754Z,75.55
2022-08-07T06:33:10.041Z,75.76
2022-08-07T06:35:48.127Z,75.53
2022-08-07T06:38:22.851Z,75.36
2022-08-07T06:40:54.667Z,74.56
2022-08-07T06:43:22.445Z,74.97
2022-08-07T06:46:00.759Z,74.83
2022-08-07T06:48:24.951Z,75.54
2022-08-07T06:50:49.924Z,74.04
2022-08-07T06:54:11.860Z,73.80
2022-08-07T06:56:04.223Z,72.14
2022-08-07T06:58:35.585Z,70.56
2022-08-07T07:01:07.476Z,72.89
2022-08-07T07:03:48.890Z,72.55
2022-08-07T07:06:13.584Z,71.93
2022-08-07T07:08:47.097Z,69.46
2022-08-07T07:11:14.051Z,71.77
2022-08-07T07:13:58.140Z,69.55
2022-08-07T07:16:30.092Z,70.31
2022-08-07T07:19:11.302Z,71.78
2022-08-07T07:22:04.920Z,70.08
2022-08-07T07:24:29.116Z,71.05
2022-08-07T07:26:57.346Z,70.70
2022-08-07T07:29:57.124Z,72.01
2022-08-07T07:32:14.015Z,71.66
2022-08-07T07:34:41.012Z,71.32
2022-08-07T07:37:21.781Z,73.23
2022-08-07T07:39:54.532Z,70.32
2022-08-07T07:42:19.798Z,69.75
2022-08-07T07:44:49.661Z,71.60
2022-08-07T07:47:22.835Z,71.13
2022-08-07T07:50:34.008Z,68.88
2022-08-07T07:52:33.314Z,69.83
2022-08-07T07:54:56.571Z,70.61
2022-08-07T07:57:43.963Z,70.30
2022-08-07T08:00:07.559Z,68.09
2022-08-07T08:02:36.098Z,67.25
2022-08-07T08:05:00.759Z,67.28
2022-08-07T08:07:35.837Z,66.52
2022-08-07T08:10:07.524Z,65.95
2022-08-07T08:12:52.096Z,67.16
2022-08-07T08:15:15.704Z,65.88
2022-08-07T08:17:58.169Z,65.46
2022-08-07T08:20:23.068Z,65.13
2022-08-07T08:23:10.128Z,64.25
2022-08-07T08:25:54.691Z,62.72
2022-08-07T08:28:38.091Z,63.41
2022-08-07T08:31:04.077Z,64.17
2022-08-07T08:33:33.107Z,63.92
2022-08-07T08:36:18.547Z,60.02
2022-08-07T08:38:50.455Z,61.78
2022-08-07T08:41:57.362Z,61.91
2022-08-07T08:44:44.299Z,61.69
2022-08-07T08:47:26.326Z,59.03
2022-08-07T08:50:04.567Z,59.14
2022-08-07T08:52:36.030Z,56.68
2022-08-07T08:55:10.093Z,57.83
2022-08-07T08:58:13.035Z,59.94
2022-08-07T09:00:48.667Z,56.86
2022-08-07T09:03:49.529Z,56.24
2022-08-07T09:06:29.495Z,58.68
2022-08-07T09:09:20.757Z,55.62
2022-08-07T09:12:31.181Z,57.83
2022-08-07T09:16:25.228Z,55.47
2022-08-07T09:18:22.484Z,56.61
2022-08-07T09:21:05.005Z,58.29
2022-08-07T09:24:33.076Z,54.99
2022-08-07T09:26:40.777Z,54.91
2022-08-07T09:30:05.534Z,52.63
2022-08-07T09:32:57.417Z,54.16
2022-08-07T09:36:04.588Z,52.15
2022-08-07T09:38:57.930Z,53.47
2022-08-07T09:41:21.218Z,49.38
2022-08-07T09:44:05.605Z,50.43
2022-08-07T09:47:51.425Z,50.57
2022-08-07T09:50:01.602Z,52.33
2022-08-07T09:52:52.509Z,51.00
2022-08-07T09:55:36.897Z,51.06
2022-08-07T09:58:35.996Z,52.50
2022-08-07T10:01:51.524Z,50.81
2022-08-07T10:04:52.866Z,51.40
2022-08-07T10:07:31.672Z,50.57
2022-08-07T10:10:11.945Z,47.86
2022-08-07T10:13:15.928Z,46.75
2022-08-07T10:16:10.543Z,45.01
2022-08-07T10:18:42.386Z,45.78
2022-08-07T10:22:02.777Z,44.76
2022-08-07T10:24:55.809Z,44.65
2022-08-07T10:27:46.646Z,46.69
2022-08-07T10:30:13.257Z,45.45
2022-08-07T10:32:52.440Z,46.44
2022-08-07T10:35:56.259Z,45.98
2022-08-07T10:38:48.490Z,43.79
2022-08-07T10:41:51.470Z,45.11
2022-08-07T10:44:28.660Z,44.14
2022-08-07T10:47:51.346Z,43.22
2022-08-07T10:50:36.773Z,44.62
2022-08-07T10:53:21.375Z,45.57
2022-08-07T10:55:53.449Z,45.84
2022-08-07T10:58:47.649Z,47.44
2022-08-07T11:01:35.675Z,49.54
2022-08-07T11:04:37.605Z,50.39
2022-08-07T11:07:24.520Z,51.13
2022-08-07T11:10:09.469Z,47.47
2022-08-07T11:13:01.598Z,47.35
2022-08-07T11:15:31.748Z,47.27
2022-08-07T11:18:15.863Z,47.68
2022-08-07T11:20:58.906Z,48.67
2022-08-07T11:23:36.579Z,46.72
2022-08-07T11:26:21.992Z,46.12
2022-08-07T11:29:01.763Z,46.85
2022-08-07T11:31:46.688Z,46.28
2022-08-07T11:34:19.274Z,44.45
2022-08-07T11:36:58.258Z,44.65
2022-08-07T11:39:39.814Z,45.72
2022-08-07T11:42:30.359Z,43.37
2022-08-07T11:45:09.299Z,43.66
2022-08-07T11:48:18.266Z,44.34
2022-08-07T11:51:35.052Z,44.14
2022-08-07T11:54:38.677Z,45.38
2022-08-07T11:57:59.478Z,46.04
2022-08-07T12:00:19.715Z,45.42
2022-08-07T12:03:41.587Z,45.99
2022-08-07T12:06:51.817Z,45.36
2022-08-07T12:09:49.775Z,44.75
2022-08-07T12:12:14.655Z,44.56
2022-08-07T12:14:53.882Z,44.50
2022-08-07T12:17:22.046Z,45.21
2022-08-07T12:20:14.046Z,45.89
2022-08-07T12:23:09.647Z,45.19
2022-08-07T12:26:23.471Z,45.19
2022-08-07T12:29:11.298Z,46.28
2022-08-07T12:31:37.660Z,46.18
2022-08-07T12:34:17.952Z,44.98
2022-08-07T12:36:43.281Z,45.23
2022-08-07T12:39:43.305Z,45.66
2022-08-07T12:41:59.031Z,43.57
2022-08-07T12:44:26.489Z,44.18
2022-08-07T12:47:14.136Z,43.54
2022-08-07T12:49:56.679Z,43.58
2022-08-07T12:52:34.079Z,43.77
2022-08-07T12:55:05.557Z,46.17
2022-08-07T12:57:39.053Z,43.91
2022-08-07T13:00:31.291Z,43.47
2022-08-07T13:03:27.094Z,44.36
2022-08-07T13:06:54.302Z,43.61
2022-08-07T13:10:19.441Z,43.20
2022-08-07T13:12:31.739Z,44.66
2022-08-07T13:15:14.195Z,43.19
2022-08-07T13:17:59.348Z,44.15
2022-08-07T13:20:39.749Z,43.41
2022-08-07T13:24:01.057Z,43.84
2022-08-07T13:26:07.445Z,42.81
2022-08-07T13:28:45.795Z,44.06
2022-08-07T13:31:17.499Z,43.43
2022-08-07T13:34:32.179Z,42.97
2022-08-07T13:36:59.417Z,42.20
2022-08-07T13:40:35.033Z,41.98
2022-08-07T13:42:42.771Z,41.99
2022-08-07T13:46:06.835Z,43.13
2022-08-07T13:48:04.292Z,40.94
2022-08-07T13:50:32.542Z,42.19
2022-08-07T13:52:59.993Z,42.22
2022-08-07T13:55:26.391Z,43.00
2022-08-07T13:58:31.732Z,42.20
2022-08-07T14:00:55.931Z,43.61
2022-08-07T14:03:30.062Z,44.07
2022-08-07T14:06:03.946Z,43.73
2022-08-07T14:08:29.568Z,43.45
2022-08-07T14:11:02.001Z,43.46
2022-08-07T14:13:38.348Z,43.52
2022-08-07T14:16:16.202Z,42.66
2022-08-07T14:18:50.010Z,42.51
2022-08-07T14:22:03.489Z,42.57
2022-08-07T14:24:34.055Z,42.76
2022-08-07T14:27:02.589Z,43.21
2022-08-07T14:30:07.714Z,42.90
2022-08-07T14:32:42.983Z,43.28
2022-08-07T14:35:06.535Z,42.09
2022-08-07T14:37:38.681Z,42.61
2022-08-07T14:40:17.848Z,42.85
2022-08-07T14:43:55.712Z,42.66
2022-08-07T14:45:49.921Z,43.25
2022-08-07T14:51:01.952Z,42.25
2022-08-07T14:54:06.557Z,42.70
2022-08-07T14:56:29.809Z,43.29
2022-08-07T14:58:56.538Z,43.03
2022-08-07T15:01:23.846Z,43.28
2022-08-07T15:06:38.129Z,43.93
2022-08-07T15:09:57.418Z,42.88
2022-08-07T15:12:04.921Z,42.61
2022-08-07T15:14:32.567Z,42.85
2022-08-07T15:17:01.213Z,41.98
2022-08-07T15:20:31.052Z,41.76
2022-08-07T15:22:23.067Z,42.41
2022-08-07T15:30:26.184Z,41.34
2022-08-07T15:36:01.927Z,41.90
2022-08-07T15:38:33.169Z,41.31
2022-08-07T15:41:24.051Z,41.43
2022-08-07T15:44:04.833Z,41.33
2022-08-07T15:46:37.623Z,42.14
2022-08-07T15:49:12.554Z,42.30
2022-08-07T15:54:21.429Z,42.32
2022-08-07T15:56:48.242Z,42.88
2022-08-07T15:59:16.331Z,41.81
2022-08-07T16:02:02.318Z,41.58
2022-08-07T16:04:32.324Z,42.63
2022-08-07T16:06:57.312Z,42.38
2022-08-07T16:09:41.091Z,42.47
2022-08-07T16:12:28.787Z,43.65
2022-08-07T16:15:07.246Z,41.77
2022-08-07T16:18:12.301Z,43.39
2022-08-07T16:21:56.757Z,43.42
2022-08-07T16:24:01.739Z,43.27
2022-08-07T16:26:30.607Z,42.32
2022-08-07T16:30:10.103Z,41.94
2022-08-07T16:32:34.638Z,42.95
2022-08-07T16:35:50.331Z,43.67
2022-08-07T16:38:38.998Z,43.48
2022-08-07T16:41:41.424Z,42.97
2022-08-07T16:44:53.650Z,43.50
2022-08-07T16:47:56.736Z,43.72
2022-08-07T16:50:37.189Z,43.66
2022-08-07T16:54:02.168Z,43.45
2022-08-07T16:56:32.216Z,43.05
2022-08-07T16:59:14.366Z,43.43
2022-08-07T17:01:56.657Z,43.76
2022-08-07T17:04:36.821Z,43.64
2022-08-07T17:07:16.846Z,43.95
2022-08-07T17:10:06.253Z,44.30
2022-08-07T17:12:56.302Z,44.13
2022-08-07T17:15:44.520Z,44.41
2022-08-07T17:18:23.833Z,44.80
2022-08-07T17:20:49.701Z,44.69
2022-08-07T17:23:32.429Z,44.89
2022-08-07T17:26:23.583Z,44.94
2022-08-07T17:29:06.320Z,44.70
2022-08-07T17:31:44.172Z,44.20
2022-08-07T17:34:34.331Z,45.16
2022-08-07T17:37:14.417Z,44.41
2022-08-07T17:40:08.223Z,44.74
2022-08-07T17:42:59.194Z,45.61
2022-08-07T17:45:31.587Z,45.85
2022-08-07T17:48:11.143Z,45.71
2022-08-07T17:50:47.125Z,45.95
2022-08-07T17:53:58.261Z,46.69
2022-08-07T17:56:28.620Z,47.39
2022-08-07T17:58:56.815Z,47.55
2022-08-07T18:01:36.282Z,47.61
2022-08-07T18:04:16.236Z,47.59
2022-08-07T18:06:47.435Z,47.48
2022-08-07T18:09:48.435Z,47.39
2022-08-07T18:12:40.601Z,46.68
2022-08-07T18:15:11.450Z,46.63
2022-08-07T18:18:46.422Z,46.07
2022-08-07T18:21:10.229Z,45.82
2022-08-07T18:23:42.163Z,46.29
2022-08-07T18:26:01.545Z,46.24
2022-08-07T18:28:59.512Z,46.23
2022-08-07T18:31:52.472Z,46.85
2022-08-07T18:34:40.777Z,47.34
2022-08-07T18:37:09.438Z,47.85
2022-08-07T18:40:17.942Z,47.84
2022-08-07T18:42:47.763Z,46.05
2022-08-07T18:45:40.143Z,46.24
2022-08-07T18:50:04.656Z,46.48
2022-08-07T18:52:33.596Z,46.72
2022-08-07T18:54:30.843Z,47.79
2022-08-07T18:57:30.929Z,47.18
2022-08-07T19:00:04.348Z,47.66
2022-08-07T19:02:51.458Z,48.33
2022-08-07T19:06:03.150Z,48.34
2022-08-07T19:08:22.337Z,49.22
2022-08-07T19:11:35.561Z,48.95
2022-08-07T19:14:17.278Z,49.67
2022-08-07T19:17:07.747Z,48.83
2022-08-07T19:19:55.954Z,50.03
2022-08-07T19:22:30.339Z,49.27
2022-08-07T19:24:54.586Z,49.06
2022-08-07T19:28:57.867Z,49.72
2022-08-07T19:31:03.257Z,49.50
2022-08-07T19:32:59.871Z,47.90
2022-08-07T19:35:26.740Z,47.93
2022-08-07T19:37:58.013Z,47.09
2022-08-07T19:40:31.325Z,46.92
2022-08-07T19:42:56.893Z,45.66
2022-08-07T19:46:05.942Z,44.89
2022-08-07T19:48:18.851Z,46.03
2022-08-07T19:50:52.470Z,45.21
2022-08-07T19:54:32.522Z,45.32
2022-08-07T19:56:00.838Z,46.14
2022-08-07T19:58:27.925Z,46.56
2022-08-07T20:00:54.074Z,46.27
2022-08-07T20:03:34.767Z,45.55
2022-08-07T20:06:02.476Z,45.09
2022-08-07T20:08:34.045Z,45.33
2022-08-07T20:11:03.898Z,45.06
2022-08-07T20:13:54.093Z,46.22
2022-08-07T20:16:35.754Z,45.79
2022-08-07T20:19:00.324Z,46.50
2022-08-07T20:21:25.091Z,46.29
2022-08-07T20:24:03.628Z,45.71
2022-08-07T20:26:44.966Z,46.25
2022-08-07T20:29:46.833Z,47.46
2022-08-07T20:31:55.317Z,46.37
2022-08-07T20:34:48.750Z,46.85
2022-08-07T20:37:08.074Z,46.12
2022-08-07T20:40:02.616Z,44.75
2022-08-07T20:42:20.574Z,45.71
2022-08-07T20:44:49.365Z,44.39
2022-08-07T20:47:14.330Z,45.15
2022-08-07T20:50:00.114Z,45.03
2022-08-07T20:52:50.774Z,44.48
2022-08-07T20:55:07.873Z,45.27
2022-08-07T20:58:02.501Z,45.01
2022-08-07T21:00:42.727Z,45.78
2022-08-07T21:03:07.542Z,46.16
2022-08-07T21:05:51.281Z,45.44
2022-08-07T21:08:36.458Z,46.10
2022-08-07T21:11:01.692Z,46.09
2022-08-07T21:13:57.100Z,47.08
2022-08-07T21:16:13.740Z,46.51
2022-08-07T21:18:40.545Z,47.17
2022-08-07T21:21:05.168Z,47.24
2022-08-07T21:24:11.825Z,46.29
2022-08-07T21:26:42.936Z,46.89
2022-08-07T21:29:22.352Z,46.92
2022-08-07T21:32:47.840Z,47.19
2022-08-07T21:34:58.179Z,47.37
2022-08-07T21:37:58.210Z,46.56
2022-08-07T21:40:45.803Z,47.51
2022-08-07T21:43:13.941Z,46.33
2022-08-07T21:46:07.767Z,46.42
2022-08-07T21:49:14.864Z,47.07
2022-08-07T21:51:55.708Z,47.37
2022-08-07T21:54:46.227Z,47.02
2022-08-07T21:57:39.364Z,47.35
2022-08-07T22:00:20.504Z,46.98
2022-08-07T22:03:05.752Z,47.31
2022-08-07T22:05:45.389Z,47.76
2022-08-07T22:08:10.856Z,46.93
2022-08-07T22:10:35.493Z,46.63
2022-08-07T22:13:05.782Z,47.14
2022-08-07T22:16:43.509Z,47.05
2022-08-07T22:18:37.383Z,46.96
2022-08-07T22:21:22.028Z,46.62
2022-08-07T22:23:53.203Z,46.60
2022-08-07T22:26:28.374Z,47.23
2022-08-07T22:29:03.938Z,46.86
2022-08-07T22:31:59.745Z,46.83
2022-08-07T22:34:53.380Z,47.65
2022-08-07T22:38:02.748Z,47.33
2022-08-07T22:40:45.140Z,47.79
2022-08-07T22:43:14.450Z,47.28
2022-08-07T22:47:02.060Z,47.24
2022-08-07T22:49:27.366Z,47.13
2022-08-07T22:52:10.118Z,46.87
2022-08-07T22:55:17.250Z,47.71
2022-08-07T22:58:04.702Z,47.54
2022-08-07T23:01:06.218Z,48.11
2022-08-07T23:03:57.929Z,47.51
2022-08-07T23:06:40.829Z,47.71
2022-08-07T23:10:04.865Z,47.68
2022-08-07T23:12:37.407Z,47.69
2022-08-07T23:15:00.443Z,47.65
2022-08-07T23:17:37.813Z,47.54
2022-08-07T23:20:50.988Z,48.75
2022-08-07T23:24:05.741Z,48.17
2022-08-07T23:26:38.072Z,47.46
2022-08-07T23:29:43.281Z,47.37
2022-08-07T23:34:20.340Z,47.90
2022-08-07T23:35:44.895Z,49.22
2022-08-07T23:38:36.537Z,48.99
2022-08-07T23:42:01.771Z,48.60
2022-08-07T23:44:29.980Z,48.89
2022-08-07T23:47:16.197Z,49.34
2022-08-07T23:50:00.903Z,50.51
2022-08-07T23:53:05.780Z,49.97
2022-08-07T23:55:53.669Z,50.48
2022-08-07T23:58:38.353Z,50.63
